sensor_id;sensor_type;location;lat;lon;timestamp;pressure;altitude;pressure_sealevel;temperature;humidity
52441;BME280;39611;46.062;8.950;2023-03-03T00:00:42;96517.19;;;5.04;87.95
52441;BME280;39611;46.062;8.950;2023-03-03T00:03:11;96519.47;;;5.00;87.88
52441;BME280;39611;46.062;8.950;2023-03-03T00:05:41;96520.13;;;5.08;88.19
52441;BME280;39611;46.062;8.950;2023-03-03T00:08:08;96515.38;;;5.04;88.14
52441;BME280;39611;46.062;8.950;2023-03-03T00:10:36;96510.50;;;4.96;89.19
52441;BME280;39611;46.062;8.950;2023-03-03T00:13:02;96511.47;;;5.07;88.87
52441;BME280;39611;46.062;8.950;2023-03-03T00:15:30;96514.16;;;4.95;87.75
52441;BME280;39611;46.062;8.950;2023-03-03T00:17:57;96511.63;;;4.72;88.74
52441;BME280;39611;46.062;8.950;2023-03-03T00:20:35;96516.88;;;4.72;89.16
52441;BME280;39611;46.062;8.950;2023-03-03T00:23:13;96513.16;;;4.68;88.83
52441;BME280;39611;46.062;8.950;2023-03-03T00:25:44;96512.81;;;4.64;88.20
52441;BME280;39611;46.062;8.950;2023-03-03T00:28:44;96506.94;;;4.57;88.37
52441;BME280;39611;46.062;8.950;2023-03-03T00:31:16;96513.25;;;4.73;88.55
52441;BME280;39611;46.062;8.950;2023-03-03T00:34:18;96506.88;;;4.69;89.95
52441;BME280;39611;46.062;8.950;2023-03-03T00:36:49;96510.72;;;4.78;89.01
52441;BME280;39611;46.062;8.950;2023-03-03T00:41:52;96505.03;;;4.69;89.88
52441;BME280;39611;46.062;8.950;2023-03-03T00:47:35;96502.75;;;4.73;89.85
52441;BME280;39611;46.062;8.950;2023-03-03T00:52:35;96505.56;;;4.83;89.45
52441;BME280;39611;46.062;8.950;2023-03-03T00:55:02;96503.50;;;4.85;88.76
52441;BME280;39611;46.062;8.950;2023-03-03T00:57:29;96498.53;;;4.72;89.24
52441;BME280;39611;46.062;8.950;2023-03-03T00:59:56;96496.56;;;4.50;90.14
52441;BME280;39611;46.062;8.950;2023-03-03T01:02:22;96492.38;;;4.49;90.44
52441;BME280;39611;46.062;8.950;2023-03-03T01:04:51;96492.31;;;4.61;90.32
52441;BME280;39611;46.062;8.950;2023-03-03T01:07:18;96495.38;;;4.70;89.45
52441;BME280;39611;46.062;8.950;2023-03-03T01:09:45;96495.81;;;4.67;89.67
52441;BME280;39611;46.062;8.950;2023-03-03T01:12:11;96492.00;;;4.57;89.59
52441;BME280;39611;46.062;8.950;2023-03-03T01:14:39;96491.63;;;4.66;88.52
52441;BME280;39611;46.062;8.950;2023-03-03T01:17:05;96489.38;;;4.57;88.93
52441;BME280;39611;46.062;8.950;2023-03-03T01:19:32;96487.31;;;4.59;88.88
52441;BME280;39611;46.062;8.950;2023-03-03T01:21:59;96494.53;;;4.52;88.70
52441;BME280;39611;46.062;8.950;2023-03-03T01:24:26;96488.50;;;4.52;88.33
52441;BME280;39611;46.062;8.950;2023-03-03T01:26:52;96490.47;;;4.33;89.51
52441;BME280;39611;46.062;8.950;2023-03-03T01:29:19;96483.94;;;4.47;89.59
52441;BME280;39611;46.062;8.950;2023-03-03T01:31:45;96488.50;;;4.52;89.44
52441;BME280;39611;46.062;8.950;2023-03-03T01:34:11;96478.34;;;4.55;89.14
52441;BME280;39611;46.062;8.950;2023-03-03T01:36:38;96480.25;;;4.60;88.86
52441;BME280;39611;46.062;8.950;2023-03-03T01:39:04;96479.47;;;4.59;88.47
52441;BME280;39611;46.062;8.950;2023-03-03T01:41:31;96489.38;;;4.57;88.65
52441;BME280;39611;46.062;8.950;2023-03-03T01:43:59;96485.22;;;4.45;89.02
52441;BME280;39611;46.062;8.950;2023-03-03T01:49:26;96483.53;;;4.38;89.68
52441;BME280;39611;46.062;8.950;2023-03-03T01:51:55;96480.00;;;4.33;89.16
52441;BME280;39611;46.062;8.950;2023-03-03T01:54:37;96473.25;;;4.08;90.35
52441;BME280;39611;46.062;8.950;2023-03-03T01:57:14;96470.94;;;4.24;90.64
52441;BME280;39611;46.062;8.950;2023-03-03T01:59:45;96473.66;;;4.29;89.53
52441;BME280;39611;46.062;8.950;2023-03-03T02:02:13;96472.56;;;4.13;90.93
52441;BME280;39611;46.062;8.950;2023-03-03T02:04:39;96473.97;;;4.32;90.43
52441;BME280;39611;46.062;8.950;2023-03-03T02:07:08;96473.38;;;4.42;90.59
52441;BME280;39611;46.062;8.950;2023-03-03T02:09:50;96470.06;;;4.47;89.62
52441;BME280;39611;46.062;8.950;2023-03-03T02:12:20;96465.63;;;4.35;90.53
52441;BME280;39611;46.062;8.950;2023-03-03T02:14:48;96461.75;;;4.38;89.74
52441;BME280;39611;46.062;8.950;2023-03-03T02:17:15;96453.69;;;4.40;89.45
52441;BME280;39611;46.062;8.950;2023-03-03T02:19:56;96452.09;;;4.38;89.38
52441;BME280;39611;46.062;8.950;2023-03-03T02:22:33;96445.25;;;4.37;89.26
52441;BME280;39611;46.062;8.950;2023-03-03T02:25:07;96440.72;;;4.33;89.23
52441;BME280;39611;46.062;8.950;2023-03-03T02:27:36;96441.53;;;4.33;89.05
52441;BME280;39611;46.062;8.950;2023-03-03T02:30:16;96444.19;;;4.22;89.31
52441;BME280;39611;46.062;8.950;2023-03-03T02:32:43;96438.38;;;4.20;89.20
52441;BME280;39611;46.062;8.950;2023-03-03T02:35:31;96435.84;;;4.25;89.04
52441;BME280;39611;46.062;8.950;2023-03-03T02:38:16;96431.84;;;4.34;88.43
52441;BME280;39611;46.062;8.950;2023-03-03T02:43:50;96429.63;;;4.14;89.82
52441;BME280;39611;46.062;8.950;2023-03-03T02:46:18;96417.91;;;4.16;89.24
52441;BME280;39611;46.062;8.950;2023-03-03T02:48:44;96416.75;;;4.12;89.49
52441;BME280;39611;46.062;8.950;2023-03-03T02:51:11;96421.19;;;4.24;90.13
52441;BME280;39611;46.062;8.950;2023-03-03T02:53:37;96416.03;;;4.29;88.82
52441;BME280;39611;46.062;8.950;2023-03-03T02:56:04;96415.44;;;4.10;89.67
52441;BME280;39611;46.062;8.950;2023-03-03T02:58:32;96414.06;;;4.07;89.63
52441;BME280;39611;46.062;8.950;2023-03-03T03:00:58;96413.81;;;4.09;88.90
52441;BME280;39611;46.062;8.950;2023-03-03T03:03:25;96408.03;;;4.07;89.67
52441;BME280;39611;46.062;8.950;2023-03-03T03:05:52;96409.44;;;3.98;89.56
52441;BME280;39611;46.062;8.950;2023-03-03T03:08:18;96407.28;;;3.94;90.20
52441;BME280;39611;46.062;8.950;2023-03-03T03:10:45;96399.63;;;4.05;89.59
52441;BME280;39611;46.062;8.950;2023-03-03T03:13:11;96398.88;;;3.92;90.27
52441;BME280;39611;46.062;8.950;2023-03-03T03:15:38;96401.22;;;4.06;89.53
52441;BME280;39611;46.062;8.950;2023-03-03T03:18:04;96398.28;;;4.02;89.56
52441;BME280;39611;46.062;8.950;2023-03-03T03:20:36;96397.59;;;3.95;90.25
52441;BME280;39611;46.062;8.950;2023-03-03T03:23:03;96392.28;;;3.90;90.41
52441;BME280;39611;46.062;8.950;2023-03-03T03:25:29;96390.94;;;3.76;91.29
52441;BME280;39611;46.062;8.950;2023-03-03T03:27:56;96393.38;;;3.94;90.91
52441;BME280;39611;46.062;8.950;2023-03-03T03:30:22;96387.44;;;3.99;90.09
52441;BME280;39611;46.062;8.950;2023-03-03T03:32:49;96394.97;;;3.95;89.80
52441;BME280;39611;46.062;8.950;2023-03-03T03:35:15;96392.59;;;3.93;90.02
52441;BME280;39611;46.062;8.950;2023-03-03T03:37:43;96384.63;;;3.88;91.04
52441;BME280;39611;46.062;8.950;2023-03-03T03:40:10;96388.91;;;4.06;90.39
52441;BME280;39611;46.062;8.950;2023-03-03T03:42:37;96390.97;;;4.04;89.93
52441;BME280;39611;46.062;8.950;2023-03-03T03:45:05;96379.00;;;4.08;89.84
52441;BME280;39611;46.062;8.950;2023-03-03T03:47:32;96378.22;;;4.08;90.22
52441;BME280;39611;46.062;8.950;2023-03-03T03:49:58;96378.53;;;4.11;89.33
52441;BME280;39611;46.062;8.950;2023-03-03T03:52:24;96385.31;;;3.96;89.39
52441;BME280;39611;46.062;8.950;2023-03-03T03:54:51;96379.09;;;3.85;89.72
52441;BME280;39611;46.062;8.950;2023-03-03T03:57:17;96381.34;;;3.93;89.81
52441;BME280;39611;46.062;8.950;2023-03-03T03:59:44;96378.16;;;3.91;90.36
52441;BME280;39611;46.062;8.950;2023-03-03T04:02:10;96379.50;;;3.93;89.77
52441;BME280;39611;46.062;8.950;2023-03-03T04:04:37;96376.00;;;3.88;89.31
52441;BME280;39611;46.062;8.950;2023-03-03T04:07:03;96370.00;;;3.76;90.28
52441;BME280;39611;46.062;8.950;2023-03-03T04:09:29;96373.38;;;3.88;89.61
52441;BME280;39611;46.062;8.950;2023-03-03T04:11:56;96371.63;;;4.05;88.93
52441;BME280;39611;46.062;8.950;2023-03-03T04:14:22;96365.25;;;4.01;89.04
52441;BME280;39611;46.062;8.950;2023-03-03T04:16:49;96362.31;;;3.98;89.02
52441;BME280;39611;46.062;8.950;2023-03-03T04:19:15;96355.91;;;4.05;88.56
52441;BME280;39611;46.062;8.950;2023-03-03T04:21:42;96358.63;;;4.10;87.98
52441;BME280;39611;46.062;8.950;2023-03-03T04:24:08;96364.28;;;4.19;87.39
52441;BME280;39611;46.062;8.950;2023-03-03T04:26:35;96353.81;;;4.19;87.77
52441;BME280;39611;46.062;8.950;2023-03-03T04:29:01;96365.34;;;4.06;87.55
52441;BME280;39611;46.062;8.950;2023-03-03T04:31:28;96352.53;;;3.93;87.60
52441;BME280;39611;46.062;8.950;2023-03-03T04:33:54;96355.53;;;3.85;88.16
52441;BME280;39611;46.062;8.950;2023-03-03T04:36:21;96351.69;;;3.76;88.89
52441;BME280;39611;46.062;8.950;2023-03-03T04:38:47;96357.94;;;3.75;89.86
52441;BME280;39611;46.062;8.950;2023-03-03T04:41:15;96348.59;;;3.79;89.50
52441;BME280;39611;46.062;8.950;2023-03-03T04:43:42;96350.88;;;3.87;88.44
52441;BME280;39611;46.062;8.950;2023-03-03T04:46:08;96356.00;;;3.82;88.97
52441;BME280;39611;46.062;8.950;2023-03-03T04:48:35;96348.88;;;3.65;89.22
52441;BME280;39611;46.062;8.950;2023-03-03T04:51:01;96347.50;;;3.63;89.43
52441;BME280;39611;46.062;8.950;2023-03-03T04:53:27;96346.88;;;3.56;89.65
52441;BME280;39611;46.062;8.950;2023-03-03T04:55:54;96351.94;;;3.74;89.26
52441;BME280;39611;46.062;8.950;2023-03-03T04:58:20;96345.94;;;3.50;90.03
52441;BME280;39611;46.062;8.950;2023-03-03T05:00:54;96344.88;;;3.75;89.11
52441;BME280;39611;46.062;8.950;2023-03-03T05:03:21;96346.03;;;3.55;89.40
52441;BME280;39611;46.062;8.950;2023-03-03T05:05:48;96346.50;;;3.52;88.64
52441;BME280;39611;46.062;8.950;2023-03-03T05:08:15;96343.56;;;3.37;89.95
52441;BME280;39611;46.062;8.950;2023-03-03T05:10:41;96342.88;;;3.53;89.47
52441;BME280;39611;46.062;8.950;2023-03-03T05:13:07;96339.22;;;3.54;88.72
52441;BME280;39611;46.062;8.950;2023-03-03T05:15:34;96345.63;;;3.46;89.33
52441;BME280;39611;46.062;8.950;2023-03-03T05:18:01;96345.28;;;3.31;89.44
52441;BME280;39611;46.062;8.950;2023-03-03T05:20:28;96335.19;;;3.23;89.90
52441;BME280;39611;46.062;8.950;2023-03-03T05:22:54;96340.97;;;3.37;89.67
52441;BME280;39611;46.062;8.950;2023-03-03T05:25:22;96340.97;;;3.37;89.47
52441;BME280;39611;46.062;8.950;2023-03-03T05:27:49;96335.53;;;3.26;90.00
52441;BME280;39611;46.062;8.950;2023-03-03T05:30:15;96337.44;;;3.43;90.19
52441;BME280;39611;46.062;8.950;2023-03-03T05:32:42;96340.84;;;3.43;89.05
52441;BME280;39611;46.062;8.950;2023-03-03T05:35:09;96347.59;;;3.27;90.27
52441;BME280;39611;46.062;8.950;2023-03-03T05:37:35;96335.38;;;3.45;90.06
52441;BME280;39611;46.062;8.950;2023-03-03T05:40:02;96335.38;;;3.45;89.40
52441;BME280;39611;46.062;8.950;2023-03-03T05:42:29;96336.34;;;3.27;90.09
52441;BME280;39611;46.062;8.950;2023-03-03T05:44:56;96338.69;;;3.40;89.93
52441;BME280;39611;46.062;8.950;2023-03-03T05:47:22;96338.66;;;3.52;89.09
52441;BME280;39611;46.062;8.950;2023-03-03T05:49:49;96345.72;;;3.40;89.42
52441;BME280;39611;46.062;8.950;2023-03-03T05:52:15;96342.94;;;3.30;90.67
52441;BME280;39611;46.062;8.950;2023-03-03T05:54:41;96342.00;;;3.36;91.02
52441;BME280;39611;46.062;8.950;2023-03-03T05:57:08;96341.44;;;3.34;89.42
52441;BME280;39611;46.062;8.950;2023-03-03T05:59:34;96341.09;;;3.30;89.99
52441;BME280;39611;46.062;8.950;2023-03-03T06:02:01;96340.97;;;3.37;89.76
52441;BME280;39611;46.062;8.950;2023-03-03T06:04:27;96345.53;;;3.30;90.48
52441;BME280;39611;46.062;8.950;2023-03-03T06:06:53;96346.34;;;3.30;90.62
52441;BME280;39611;46.062;8.950;2023-03-03T06:09:20;96346.19;;;3.37;90.85
52441;BME280;39611;46.062;8.950;2023-03-03T06:11:46;96349.47;;;3.56;89.80
52441;BME280;39611;46.062;8.950;2023-03-03T06:14:13;96347.66;;;3.44;89.77
52441;BME280;39611;46.062;8.950;2023-03-03T06:16:39;96350.63;;;3.36;89.21
52441;BME280;39611;46.062;8.950;2023-03-03T06:19:06;96350.41;;;3.38;89.68
52441;BME280;39611;46.062;8.950;2023-03-03T06:21:32;96346.19;;;3.37;89.67
52441;BME280;39611;46.062;8.950;2023-03-03T06:23:59;96349.38;;;3.39;89.81
52441;BME280;39611;46.062;8.950;2023-03-03T06:26:25;96348.44;;;3.45;89.73
52441;BME280;39611;46.062;8.950;2023-03-03T06:28:51;96346.16;;;3.60;89.16
52441;BME280;39611;46.062;8.950;2023-03-03T06:31:20;96348.34;;;3.52;89.18
52441;BME280;39611;46.062;8.950;2023-03-03T06:33:46;96346.97;;;3.61;89.14
52441;BME280;39611;46.062;8.950;2023-03-03T06:36:13;96358.41;;;3.71;88.74
52441;BME280;39611;46.062;8.950;2023-03-03T06:38:40;96364.88;;;3.81;88.77
52441;BME280;39611;46.062;8.950;2023-03-03T06:41:06;96364.34;;;3.67;88.23
52441;BME280;39611;46.062;8.950;2023-03-03T06:43:34;96363.25;;;3.51;88.92
52441;BME280;39611;46.062;8.950;2023-03-03T06:46:02;96357.00;;;3.40;89.72
52441;BME280;39611;46.062;8.950;2023-03-03T06:48:32;96366.31;;;3.48;89.62
52441;BME280;39611;46.062;8.950;2023-03-03T06:51:00;96367.31;;;3.47;89.15
52441;BME280;39611;46.062;8.950;2023-03-03T06:53:30;96369.28;;;3.28;90.54
52441;BME280;39611;46.062;8.950;2023-03-03T06:55:58;96370.31;;;3.39;90.59
52441;BME280;39611;46.062;8.950;2023-03-03T06:58:25;96366.44;;;3.53;90.22
52441;BME280;39611;46.062;8.950;2023-03-03T07:00:55;96370.72;;;3.59;90.17
52441;BME280;39611;46.062;8.950;2023-03-03T07:03:24;96372.66;;;3.52;90.42
52441;BME280;39611;46.062;8.950;2023-03-03T07:05:52;96373.56;;;3.58;90.22
52441;BME280;39611;46.062;8.950;2023-03-03T07:08:21;96376.84;;;3.77;89.79
52441;BME280;39611;46.062;8.950;2023-03-03T07:10:50;96374.16;;;3.88;89.10
52441;BME280;39611;46.062;8.950;2023-03-03T07:15:49;96377.31;;;3.74;90.52
52441;BME280;39611;46.062;8.950;2023-03-03T07:18:42;96381.59;;;3.80;90.66
52441;BME280;39611;46.062;8.950;2023-03-03T07:21:29;96387.03;;;3.90;90.16
52441;BME280;39611;46.062;8.950;2023-03-03T07:23:57;96387.94;;;3.84;90.33
52441;BME280;39611;46.062;8.950;2023-03-03T07:26:29;96395.47;;;3.92;90.94
52441;BME280;39611;46.062;8.950;2023-03-03T07:29:22;96390.53;;;4.07;90.17
52441;BME280;39611;46.062;8.950;2023-03-03T07:31:49;96391.03;;;4.21;88.89
52441;BME280;39611;46.062;8.950;2023-03-03T07:34:22;96388.72;;;4.25;88.72
52441;BME280;39611;46.062;8.950;2023-03-03T07:36:53;96389.78;;;4.12;89.11
52441;BME280;39611;46.062;8.950;2023-03-03T07:39:27;96383.66;;;4.06;89.37
52441;BME280;39611;46.062;8.950;2023-03-03T07:42:01;96383.28;;;4.14;90.28
52441;BME280;39611;46.062;8.950;2023-03-03T07:44:38;96379.84;;;4.26;90.26
52441;BME280;39611;46.062;8.950;2023-03-03T07:47:22;96376.84;;;4.34;90.23
52441;BME280;39611;46.062;8.950;2023-03-03T07:49:50;96375.44;;;4.43;89.96
52441;BME280;39611;46.062;8.950;2023-03-03T07:52:26;96377.91;;;4.50;89.95
52441;BME280;39611;46.062;8.950;2023-03-03T07:54:55;96377.38;;;4.65;88.64
52441;BME280;39611;46.062;8.950;2023-03-03T07:57:34;96379.59;;;4.73;88.97
52441;BME280;39611;46.062;8.950;2023-03-03T08:02:56;96378.63;;;4.79;88.54
52441;BME280;39611;46.062;8.950;2023-03-03T08:08:00;96367.28;;;4.90;88.42
52441;BME280;39611;46.062;8.950;2023-03-03T08:16:17;96359.56;;;5.17;88.03
52441;BME280;39611;46.062;8.950;2023-03-03T08:18:47;96361.28;;;5.29;87.40
52441;BME280;39611;46.062;8.950;2023-03-03T08:21:17;96364.09;;;5.44;86.77
52441;BME280;39611;46.062;8.950;2023-03-03T08:23:44;96358.44;;;5.52;86.62
52441;BME280;39611;46.062;8.950;2023-03-03T08:26:11;96354.53;;;5.55;86.36
52441;BME280;39611;46.062;8.950;2023-03-03T08:28:39;96349.28;;;5.55;86.19
52441;BME280;39611;46.062;8.950;2023-03-03T08:31:05;96358.50;;;5.57;86.18
52441;BME280;39611;46.062;8.950;2023-03-03T08:33:50;96347.84;;;5.64;85.54
52441;BME280;39611;46.062;8.950;2023-03-03T08:36:16;96346.84;;;5.70;86.24
52441;BME280;39611;46.062;8.950;2023-03-03T08:38:43;96352.00;;;5.82;84.65
52441;BME280;39611;46.062;8.950;2023-03-03T08:41:10;96343.28;;;5.76;85.68
52441;BME280;39611;46.062;8.950;2023-03-03T08:43:37;96344.63;;;5.79;83.89
52441;BME280;39611;46.062;8.950;2023-03-03T08:46:04;96348.13;;;5.89;82.63
52441;BME280;39611;46.062;8.950;2023-03-03T08:48:32;96349.97;;;5.89;83.38
52441;BME280;39611;46.062;8.950;2023-03-03T08:50:58;96342.53;;;6.03;82.73
52441;BME280;39611;46.062;8.950;2023-03-03T08:53:25;96343.63;;;6.07;82.69
52441;BME280;39611;46.062;8.950;2023-03-03T08:55:52;96350.31;;;6.20;81.80
52441;BME280;39611;46.062;8.950;2023-03-03T08:58:19;96343.78;;;6.22;82.34
52441;BME280;39611;46.062;8.950;2023-03-03T09:01:00;96347.25;;;6.28;83.13
52441;BME280;39611;46.062;8.950;2023-03-03T09:03:26;96348.94;;;6.39;83.41
52441;BME280;39611;46.062;8.950;2023-03-03T09:05:53;96346.91;;;6.46;84.43
52441;BME280;39611;46.062;8.950;2023-03-03T09:08:19;96352.22;;;6.51;84.02
52441;BME280;39611;46.062;8.950;2023-03-03T09:10:46;96352.00;;;6.58;82.99
52441;BME280;39611;46.062;8.950;2023-03-03T09:13:15;96357.84;;;6.65;83.53
52441;BME280;39611;46.062;8.950;2023-03-03T09:15:41;96353.69;;;6.69;82.58
52441;BME280;39611;46.062;8.950;2023-03-03T09:18:25;96357.91;;;6.75;82.49
52441;BME280;39611;46.062;8.950;2023-03-03T09:20:55;96350.28;;;6.74;81.95
52441;BME280;39611;46.062;8.950;2023-03-03T09:25:50;96352.44;;;6.82;81.08
52441;BME280;39611;46.062;8.950;2023-03-03T09:28:29;96343.28;;;6.90;80.57
52441;BME280;39611;46.062;8.950;2023-03-03T09:30:59;96343.09;;;6.96;80.48
52441;BME280;39611;46.062;8.950;2023-03-03T09:33:40;96352.88;;;7.06;81.00
52441;BME280;39611;46.062;8.950;2023-03-03T09:38:47;96357.19;;;7.22;80.84
52441;BME280;39611;46.062;8.950;2023-03-03T09:41:30;96357.22;;;7.28;81.09
52441;BME280;39611;46.062;8.950;2023-03-03T09:49:35;96357.34;;;7.48;79.42
52441;BME280;39611;46.062;8.950;2023-03-03T10:11:37;96359.38;;;7.94;76.40
52441;BME280;39611;46.062;8.950;2023-03-03T10:16:50;96356.75;;;7.99;75.82
52441;BME280;39611;46.062;8.950;2023-03-03T10:22:19;96356.28;;;8.07;74.55
52441;BME280;39611;46.062;8.950;2023-03-03T10:25:01;96359.16;;;8.05;75.21
52441;BME280;39611;46.062;8.950;2023-03-03T10:33:11;96349.22;;;8.28;76.05
52441;BME280;39611;46.062;8.950;2023-03-03T10:43:56;96346.09;;;8.41;72.93
52441;BME280;39611;46.062;8.950;2023-03-03T10:52:21;96351.38;;;8.51;71.27
52441;BME280;39611;46.062;8.950;2023-03-03T10:58:01;96348.47;;;8.73;70.76
52441;BME280;39611;46.062;8.950;2023-03-03T11:06:25;96351.63;;;9.06;68.19
52441;BME280;39611;46.062;8.950;2023-03-03T11:11:52;96345.03;;;9.09;68.31
52441;BME280;39611;46.062;8.950;2023-03-03T11:14:27;96348.19;;;9.26;65.56
52441;BME280;39611;46.062;8.950;2023-03-03T11:17:04;96339.19;;;9.32;64.38
52441;BME280;39611;46.062;8.950;2023-03-03T11:25:05;96333.09;;;9.47;61.27
52441;BME280;39611;46.062;8.950;2023-03-03T11:28:10;96332.25;;;9.52;61.02
52441;BME280;39611;46.062;8.950;2023-03-03T11:33:17;96327.47;;;9.69;59.18
52441;BME280;39611;46.062;8.950;2023-03-03T11:38:51;96317.19;;;9.62;60.97
52441;BME280;39611;46.062;8.950;2023-03-03T11:50:00;96318.97;;;9.77;60.36
52441;BME280;39611;46.062;8.950;2023-03-03T11:52:49;96303.63;;;9.84;59.68
52441;BME280;39611;46.062;8.950;2023-03-03T11:55:29;96301.00;;;9.79;59.31
52441;BME280;39611;46.062;8.950;2023-03-03T11:58:13;96301.53;;;9.81;59.84
52441;BME280;39611;46.062;8.950;2023-03-03T12:03:33;96299.06;;;9.95;58.28
52441;BME280;39611;46.062;8.950;2023-03-03T12:06:12;96304.63;;;9.99;59.49
52441;BME280;39611;46.062;8.950;2023-03-03T12:09:08;96296.19;;;9.92;60.40
52441;BME280;39611;46.062;8.950;2023-03-03T12:22:46;96287.13;;;10.03;58.34
52441;BME280;39611;46.062;8.950;2023-03-03T12:25:35;96281.00;;;10.13;57.79
52441;BME280;39611;46.062;8.950;2023-03-03T12:28:20;96283.69;;;10.07;59.36
52441;BME280;39611;46.062;8.950;2023-03-03T12:33:45;96279.13;;;10.18;56.75
52441;BME280;39611;46.062;8.950;2023-03-03T12:44:54;96273.28;;;10.21;57.07
52441;BME280;39611;46.062;8.950;2023-03-03T12:47:37;96266.38;;;10.25;56.59
52441;BME280;39611;46.062;8.950;2023-03-03T12:53:08;96266.38;;;10.25;57.07
52441;BME280;39611;46.062;8.950;2023-03-03T12:55:55;96263.91;;;10.39;57.49
52441;BME280;39611;46.062;8.950;2023-03-03T13:09:25;96259.28;;;10.55;55.96
52441;BME280;39611;46.062;8.950;2023-03-03T13:14:54;96255.56;;;10.61;56.02
52441;BME280;39611;46.062;8.950;2023-03-03T13:17:47;96261.13;;;10.60;56.96
52441;BME280;39611;46.062;8.950;2023-03-03T13:23:12;96257.16;;;10.57;56.40
52441;BME280;39611;46.062;8.950;2023-03-03T13:25:57;96257.16;;;10.57;57.06
52441;BME280;39611;46.062;8.950;2023-03-03T13:31:28;96253.50;;;10.53;59.47
52441;BME280;39611;46.062;8.950;2023-03-03T13:33:58;96253.50;;;10.53;57.99
52441;BME280;39611;46.062;8.950;2023-03-03T13:36:40;96249.16;;;10.67;57.56
52441;BME280;39611;46.062;8.950;2023-03-03T13:39:21;96251.78;;;10.67;57.16
52441;BME280;39611;46.062;8.950;2023-03-03T13:42:01;96245.72;;;10.67;58.73
52441;BME280;39611;46.062;8.950;2023-03-03T13:44:39;96240.47;;;10.91;56.95
52441;BME280;39611;46.062;8.950;2023-03-03T13:50:19;96250.53;;;10.89;57.69
52441;BME280;39611;46.062;8.950;2023-03-03T13:55:44;96247.31;;;10.92;58.34
52441;BME280;39611;46.062;8.950;2023-03-03T13:58:33;96250.44;;;10.99;57.86
52441;BME280;39611;46.062;8.950;2023-03-03T14:01:13;96244.34;;;10.99;56.01
52441;BME280;39611;46.062;8.950;2023-03-03T14:03:50;96249.63;;;10.99;57.16
52441;BME280;39611;46.062;8.950;2023-03-03T14:06:22;96247.66;;;11.09;56.83
52441;BME280;39611;46.062;8.950;2023-03-03T14:09:11;96249.38;;;11.00;57.36
52441;BME280;39611;46.062;8.950;2023-03-03T14:11:59;96248.91;;;10.93;57.22
52441;BME280;39611;46.062;8.950;2023-03-03T14:14:47;96247.09;;;11.12;56.91
52441;BME280;39611;46.062;8.950;2023-03-03T14:17:25;96246.22;;;10.98;58.30
52441;BME280;39611;46.062;8.950;2023-03-03T14:20:35;96247.91;;;11.13;57.49
52441;BME280;39611;46.062;8.950;2023-03-03T14:28:24;96240.88;;;11.03;57.39
52441;BME280;39611;46.062;8.950;2023-03-03T14:30:56;96233.88;;;11.12;57.25
52441;BME280;39611;46.062;8.950;2023-03-03T14:33:28;96234.94;;;11.11;56.66
52441;BME280;39611;46.062;8.950;2023-03-03T14:38:36;96236.97;;;11.20;56.54
52441;BME280;39611;46.062;8.950;2023-03-03T14:41:14;96241.63;;;11.28;56.58
52441;BME280;39611;46.062;8.950;2023-03-03T14:43:55;96236.91;;;11.25;56.65
52441;BME280;39611;46.062;8.950;2023-03-03T14:46:36;96240.25;;;11.11;57.64
52441;BME280;39611;46.062;8.950;2023-03-03T14:49:27;96236.50;;;11.12;58.43
52441;BME280;39611;46.062;8.950;2023-03-03T14:52:08;96234.78;;;11.27;57.03
52441;BME280;39611;46.062;8.950;2023-03-03T14:54:39;96236.53;;;11.36;57.21
52441;BME280;39611;46.062;8.950;2023-03-03T14:57:14;96239.25;;;11.31;56.36
52441;BME280;39611;46.062;8.950;2023-03-03T15:02:40;96242.84;;;11.17;55.63
52441;BME280;39611;46.062;8.950;2023-03-03T15:05:16;96244.47;;;11.12;56.29
52441;BME280;39611;46.062;8.950;2023-03-03T15:07:46;96244.41;;;10.93;57.64
52441;BME280;39611;46.062;8.950;2023-03-03T15:10:26;96250.00;;;10.87;57.26
52441;BME280;39611;46.062;8.950;2023-03-03T15:12:53;96238.44;;;10.83;55.75
52441;BME280;39611;46.062;8.950;2023-03-03T15:15:21;96247.97;;;10.79;56.09
52441;BME280;39611;46.062;8.950;2023-03-03T15:37:01;96259.06;;;10.52;58.10
52441;BME280;39611;46.062;8.950;2023-03-03T15:42:13;96259.78;;;10.62;58.25
52441;BME280;39611;46.062;8.950;2023-03-03T15:47:23;96258.69;;;10.63;57.47
52441;BME280;39611;46.062;8.950;2023-03-03T16:04:12;96272.56;;;10.50;58.53
52441;BME280;39611;46.062;8.950;2023-03-03T16:07:21;96274.47;;;10.44;59.51
52441;BME280;39611;46.062;8.950;2023-03-03T16:23:47;96286.44;;;10.32;59.37
52441;BME280;39611;46.062;8.950;2023-03-03T16:29:26;96292.84;;;10.20;60.46
52441;BME280;39611;46.062;8.950;2023-03-03T16:32:01;96300.84;;;10.10;61.60
52441;BME280;39611;46.062;8.950;2023-03-03T16:40:14;96308.31;;;9.98;62.58
52441;BME280;39611;46.062;8.950;2023-03-03T16:42:42;96311.75;;;9.93;62.56
52441;BME280;39611;46.062;8.950;2023-03-03T16:45:35;96317.38;;;9.81;63.15
52441;BME280;39611;46.062;8.950;2023-03-03T16:48:21;96315.78;;;9.75;63.25
52441;BME280;39611;46.062;8.950;2023-03-03T16:51:07;96318.50;;;9.65;64.43
52441;BME280;39611;46.062;8.950;2023-03-03T16:53:56;96316.38;;;9.62;64.47
52441;BME280;39611;46.062;8.950;2023-03-03T16:57:02;96324.88;;;9.54;64.72
52441;BME280;39611;46.062;8.950;2023-03-03T17:05:01;96337.31;;;9.43;65.19
52441;BME280;39611;46.062;8.950;2023-03-03T17:07:59;96336.28;;;9.34;66.10
52441;BME280;39611;46.062;8.950;2023-03-03T17:10:50;96339.72;;;9.34;66.05
52441;BME280;39611;46.062;8.950;2023-03-03T17:13:42;96343.16;;;9.35;66.23
52441;BME280;39611;46.062;8.950;2023-03-03T17:16:29;96346.34;;;9.27;66.05
52441;BME280;39611;46.062;8.950;2023-03-03T17:22:18;96364.03;;;9.11;67.72
52441;BME280;39611;46.062;8.950;2023-03-03T17:38:13;96402.56;;;9.02;68.29
52441;BME280;39611;46.062;8.950;2023-03-03T17:43:20;96407.59;;;8.98;68.95
52441;BME280;39611;46.062;8.950;2023-03-03T17:45:50;96411.53;;;9.01;68.06
52441;BME280;39611;46.062;8.950;2023-03-03T17:48:47;96406.25;;;8.85;69.25
52441;BME280;39611;46.062;8.950;2023-03-03T17:54:17;96404.94;;;8.83;67.94
52441;BME280;39611;46.062;8.950;2023-03-03T17:59:53;96403.06;;;8.63;69.58
52441;BME280;39611;46.062;8.950;2023-03-03T18:05:25;96410.94;;;8.52;70.43
52441;BME280;39611;46.062;8.950;2023-03-03T18:08:27;96414.13;;;8.55;69.60
52441;BME280;39611;46.062;8.950;2023-03-03T18:11:21;96424.16;;;8.58;69.78